台北 の空港の天気 - METARとTAF

台湾桃園国際空港 ( RCTP / TPE ) - 台湾 台北市
飛行場実況気象(Metar)
観測時間12/10 13:06 CST (12/10 05:06 UTC)
風向・風速北東 9m/s
視程10km以上
天気現象
全天の4割程度の雲 雲底高度 90m
全天の8割程度の雲 雲底高度 180m
全天の8割程度の雲 雲底高度 460m
気温21℃
湿度94%
気圧1017hPa
METARRCTP 100506Z 04018KT 9999 SCT003 BKN006 BKN015 21/20 Q1017 NOSIG RMK A3005
過去の天気等 Google飛行場航空写真 Wunderground天気予報

過去48時間のMETAR

飛行場予報(TAF)
発表時間: 12/10 07:00 CST (12/09 23:00 UTC)
予報対象時間: 10日8時 CST ~ 11日14時 CST
風向・風速北東 7m/s
視程8000m
少しの雲 雲底高度 150m
全天の8割程度の雲 雲底高度 340m
全天の8割程度の雲 雲底高度 760m
10日8時 CST ~ 10日13時 CST に一時的に
全天の4割程度の雲 雲底高度 120m
全天の8割程度の雲 雲底高度 180m
全天の8割程度の雲 雲底高度 460m
10日14時 CST ~ 10日20時 CST に一時的に
少しの雲 雲底高度 240m
全天の8割程度の雲 雲底高度 670m
全天の8割程度の雲 雲底高度 1220m
10日21時 CST ~ 11日2時 CST に一時的に
風向・風速北 4m/s
11日7時 CST ~ 11日9時 CST に徐々に
風向・風速北東 9m/s
少しの雲 雲底高度 300m
全天の8割程度の雲 雲底高度 610m
全天の8割程度の雲 雲底高度 1070m
TAF RCTP 092300Z 1000/1106 04013KT 8000 FEW005 BKN011 BKN025
TEMPO 1000/1005 SCT004 BKN006 BKN015
TEMPO 1006/1012 FEW008 BKN022 BKN040
TEMPO 1013/1018 01008KT
BECMG 1023/1101 04018KT FEW010 BKN020 BKN035